Estações Meteorológicas Convencionais MB

Abrolhos
Data Hora VISIB (KM) Cobertura(OITAVOS) DD Vento(º) Intensidade (NÓS) TEMP DO AR (º) Temp do Ponto de Orvalho(ºC) Pressão (hPa) TEMP MAX (ºC) TEMP MIN (ºC)
30/05/2020 06:00 4/10 110 11 24.00 19.70 1019.00
30/05/2020 00:00 4/10 140 13 24.00 19.70 1020.00 27.00
29/05/2020 18:00 10/20 6 140 14 27.00 19.90 1019.00
29/05/2020 12:00 10/20 6 180 16 25.00 19.20 1021.00 26.00
28/05/2020 06:00 4/10 180 18 24.00 18.10 1017.50
28/05/2020 00:00 4/10 160 16 25.00 17.60 1016.50 28.00
27/05/2020 18:00 10/20 1 180 13 27.00 21.40 1014.50
27/05/2020 12:00 10/20 4 180 12 27.00 22.90 1015.00 27.00
27/05/2020 06:00 4/10 180 14 25.00 23.60 1013.00
27/05/2020 00:00 4/10 360 8 26.00 24.70 1012.50 29.00
26/05/2020 18:00 10/20 6 360 20 27.00 24.30 1011.50
24/05/2020 06:00 10/20 3 230 7 25.00 23.60 1017.00
25/05/2020 00:00 4/10 360 7 25.00 23.60 1018.50 28.00
23/05/2020 18:00 10/20 1 360 7 28.00 24.00 1017.00
23/05/2020 12:00 4/10 320 8 25.00 23.60 1018.50
22/05/2020 18:00 10/20 2 90 9 30.00 24.70 1018.00
22/05/2020 12:00 10/20 2 50 12 27.00 24.30 1020.00 27.00
20/05/2020 06:00 4/10 140 17 25.00 20.80 1021.50
20/05/2020 00:00 4/10 140 17 25.00 20.80 1022.50 29.00
19/05/2020 18:00 10/20 4 140 16 29.00 22.10 1021.00
19/05/2020 12:00 10/20 4 140 16 28.00 22.50 1023.00 27.00
18/05/2020 06:00 4/10 140 12 25.00 22.20 1019.00
18/05/2020 00:00 4/10 180 11 25.00 22.20 1019.00 27.00
17/05/2020 18:00 10/20 3 180 6 26.00 23.30 1017.50
17/05/2020 12:00 10/20 3 90 5 24.00 21.20 1018.00 24.00
16/05/2020 06:00 4/10 230 2 26.00 23.30 1016.00
16/05/2020 00:00 4/10 180 4 26.00 23.30 1017.50 29.00
15/05/2020 18:00 10/20 4 180 2 29.00 25.00 1015.00
15/05/2020 06:00 4/10 360 7 27.00 24.30 1016.00
15/05/2020 00:00 4/10 360 8 26.00 24.70 1016.50 27.00
14/05/2020 18:00 10/20 4 320 8 29.00 25.00 1014.50
14/05/2020 12:00 10/20 4 360 8 29.00 23.60 1017.50 26.00
14/05/2020 06:00 4/10 360 8 25.00 22.20 1015.50
11/05/2020 06:00 10/20 1 100 12 25.00 17.60 1020.00
11/05/2020 00:00 4/10 140 16 26.00 18.80 1021.00 26.00
10/05/2020 18:00 10/20 4 140 18 26.50 21.80 1020.50
10/05/2020 12:00 10/20 2 140 17 26.00 20.30 1022.50 26.00
10/05/2020 06:00 10/20 3 140 17 24.00 18.10 1021.00
09/05/2020 18:00 10/20 2 140 18 27.00 22.90 1019.50
09/05/2020 12:00 10/20 4 140 21 26.00 20.30 1022.50 26.00
05/05/2020 18:00 10/20 3 50 6 28.00 25.30 1019.50
05/05/2020 12:00 10/20 3 50 5 27.00 22.90 1019.50 27.00
03/05/2020 06:00 4/10 360 7 27.00 25.70 1014.50
03/05/2020 00:00 4/10 90 6 27.00 25.70 1014.00 30.00
02/05/2020 18:00 10/20 4 360 10 29.00 26.40 1018.50
02/05/2020 12:00 10/20 4 360 6 28.00 26.70 1019.00 27.00
30/04/2020 00:00 4/10 140 10 26.00 23.30 1016.50 29.00
29/04/2020 18:00 10/20 2 180 10 27.00 24.30 1017.50
29/04/2020 12:00 10/20 6 180 7 26.00 23.30 1020.50 26.00
27/04/2020 06:00 4/10 140 15 26.00 21.80 1019.50
27/04/2020 00:00 4/10 140 20 26.00 21.80 1019.00 29.00
26/04/2020 18:00 10/20 4 140 18 28.00 22.50 1017.50
26/04/2020 12:00 10/20 5 140 12 28.00 22.50 1021.00 26.00
25/04/2020 18:00 10/20 5 140 17 26.00 24.30 1020.50
25/04/2020 12:00 10/20 5 140 60 27.00 24.30 1020.50 25.00
23/04/2020 06:00 4/10 180 17 27.00 25.70 1014.50
23/04/2020 00:00 4/10 180 15 27.00 25.70 1015.00 29.00
22/04/2020 18:00 10/20 6 140 15 28.00 25.30 1016.00
22/04/2020 12:00 10/20 7 140 15 28.00 26.70 1016.50 26.00
20/04/2020 12:00 10/20 3 140 14 27.00 24.30 1018.50 27.00
19/04/2020 00:00 4/10 160 22 26.00 21.80 1019.00 28.00
18/04/2020 18:00 10/20 7 160 25 27.00 22.90 1017.00
18/04/2020 12:00 10/20 8 140 12 26.00 21.80 1019.00 25.00
17/04/2020 12:00 10/20 6 140 9 28.00 26.70 1018.50 27.00
17/04/2020 06:00 4/10 140 5 26.00 24.70 1017.50
14/04/2020 18:00 10/20 3 140 8 26.00 26.70 1012.50
14/04/2020 06:00 10/20 8 140 12 26.00 21.80 1013.50
14/04/2020 00:00 4/10 160 17 26.00 21.80 1015.50 30.00
13/04/2020 18:00 10/20 8 170 16 27.00 24.30 1013.50
13/04/2020 12:00 10/20 7 140 17 26.00 24.70 1016.50 25.00
13/04/2020 06:00 4/10 180 19 27.00 25.70 1014.50
11/04/2020 06:00 4/10 90 13 26.00 23.30 1017.50
11/04/2020 00:00 4/10 140 10 27.00 24.30 1014.40 28.00
10/04/2020 18:00 10/20 6 90 13 26.00 23.30 1015.10
10/04/2020 12:00 10/20 8 140 13 26.00 23.30 1014.50 24.00
08/04/2020 06:00 4/10 360 9 27.00 25.70 1014.50
08/04/2020 00:00 4/10 360 10 28.00 26.70 1014.00
07/04/2020 18:00 10/20 6 360 9 30.00 27.40 1016.50
07/04/2020 12:00 10/20 5 360 7 28.00 26.70 1016.00 27.00
07/04/2020 06:00 4/10 360 7 26.00 23.30 1015.50
16/12/2019 12:00 10/20 6 360 11 27.00 24.30 1020.70 26.00
30/11/2019 06:00 4/10 320 13 27.00 25.70 1017.00
29/11/2019 12:00 10/20 5 36 14 27.00 24.30 1013.50 26.00
27/11/2019 06:00 4/10 50 11 25.00 22.20 1019.50
24/11/2019 06:00 4/10 90 7 25.00 22.20 1011.50
24/11/2019 00:00 4/10 360 16 26.00 24.70 1011.50 29.00
06/11/2019 12:00 10/20 3 320 19 28.00 24.00 1018.00 28.00
03/11/2019 00:00 4/10 90 9 26.00 21.80 1017.50 30.00
01/11/2019 12:00 10/20 2 360 7 27.00 24.30 1020.20 26.00
01/11/2019 06:00 4/10 50 8 26.00 21.80 1019.20
31/10/2019 06:00 4/10 50 11 26.00 21.80 1016.00
31/10/2019 00:00 4/10 50 15 26.00 23.30 1017.00 29.00
30/10/2019 12:00 10/20 3 360 11 29.00 25.00 1016.70 26.00
29/10/2019 12:00 10/20 5 360 14 29.00 25.00 1016.60 26.00
29/10/2019 06:00 4/10 360 13 26.00 23.30 1015.00
29/10/2019 00:00 4/10 360 13 26.00 23.30 1016.00 29.00
28/10/2019 18:00 10/20 7 360 9 29.00 25.00 1015.70
28/10/2019 00:00 4/10 360 11 26.00 21.80 1017.80 28.00
27/10/2019 18:00 10/20 4 360 12 27.00 22.90 1016.00
27/10/2019 06:00 4/10 50 10 26.00 23.30 1017.50